Time;durP1;ratioP1;P1;durP2;ratioP2;P2;SDS_P1;SDS_P2;PMS_P1;PMS_P2;Temp;Humidity;BMP_temperature;BMP_pressure;BME280_temperature;BME280_humidity;BME280_pressure;Samples;Min_cycle;Max_cycle;Signal;HPM_P1;HPM_P2
2023/09/01 00:00:32;;;;;;;8.93;3.10;;;;;;;13.02;83.39;99969.16;4240749;28;20231;-66
2023/09/01 00:02:59;;;;;;;4.80;3.13;;;;;;;13.02;83.32;99975.41;4240112;28;21575;-68
2023/09/01 00:05:32;;;;;;;6.83;3.30;;;;;;;12.97;83.45;99965.06;4249506;28;22730;-69
2023/09/01 00:07:59;;;;;;;5.10;2.67;;;;;;;13.05;82.98;99974.22;4243242;28;20244;-68
2023/09/01 00:10:26;;;;;;;5.03;3.50;;;;;;;12.93;83.73;99974.59;4240283;28;21919;-66
2023/09/01 00:12:52;;;;;;;5.97;3.30;;;;;;;13.15;82.69;99972.16;4242569;28;20312;-66
2023/09/01 00:15:19;;;;;;;5.80;3.13;;;;;;;13.17;82.20;99975.56;4233271;28;20313;-68
2023/09/01 00:17:47;;;;;;;7.13;2.87;;;;;;;13.16;82.08;99969.25;4248651;28;20242;-65
2023/09/01 00:20:14;;;;;;;7.10;3.00;;;;;;;13.06;82.51;99967.75;4245109;28;20235;-67
2023/09/01 00:22:40;;;;;;;12.30;3.23;;;;;;;13.00;82.72;99967.44;4252932;28;20239;-67
2023/09/01 00:25:07;;;;;;;4.43;3.20;;;;;;;13.00;82.47;99969.31;4236272;28;20245;-70
2023/09/01 00:27:34;;;;;;;11.37;3.50;;;;;;;12.87;83.13;99956.28;4279661;28;25604;-72
2023/09/01 00:30:01;;;;;;;5.37;2.90;;;;;;;12.95;82.75;99969.00;4218173;28;20615;-71
2023/09/01 00:32:27;;;;;;;4.67;3.10;;;;;;;12.98;82.29;99965.94;4231566;28;20242;-69
2023/09/01 00:34:57;;;;;;;7.77;2.90;;;;;;;12.92;82.88;99970.19;4239995;28;20241;-72
2023/09/01 00:37:24;;;;;;;8.00;3.20;;;;;;;12.78;83.21;99973.63;4242875;28;20280;-70
2023/09/01 00:39:52;;;;;;;8.07;3.33;;;;;;;12.84;82.94;99971.06;4240338;28;20340;-69
2023/09/01 00:42:18;;;;;;;6.83;3.00;;;;;;;12.83;82.92;99971.22;4243995;28;22254;-71
2023/09/01 00:44:45;;;;;;;7.60;3.47;;;;;;;12.86;83.14;99975.47;4247680;28;20323;-70
2023/09/01 00:47:13;;;;;;;6.60;3.17;;;;;;;12.89;82.73;99975.13;4250802;28;22788;-73
2023/09/01 00:49:40;;;;;;;4.20;3.00;;;;;;;12.92;82.81;99969.31;4230125;28;25038;-74
2023/09/01 00:52:07;;;;;;;5.17;3.13;;;;;;;12.81;83.01;99968.69;4235214;28;20430;-73
2023/09/01 00:54:34;;;;;;;7.77;3.57;;;;;;;12.88;82.31;99968.84;4245781;28;22645;-75
2023/09/01 00:57:00;;;;;;;6.70;3.03;;;;;;;12.84;82.46;99964.78;4228697;28;21791;-73
2023/09/01 00:59:27;;;;;;;5.83;3.47;;;;;;;12.81;82.61;99981.41;4231297;28;20231;-72
2023/09/01 01:01:55;;;;;;;7.33;3.37;;;;;;;12.85;82.58;99974.63;4239758;28;20511;-76
2023/09/01 01:04:22;;;;;;;5.27;3.10;;;;;;;12.82;82.43;99978.53;4257180;28;21299;-74
2023/09/01 01:07:00;;;;;;;7.40;3.47;;;;;;;12.88;82.47;99982.41;4237528;28;20257;-75
2023/09/01 01:09:42;;;;;;;6.33;3.43;;;;;;;12.78;82.65;99976.34;4223359;28;20235;-72
2023/09/01 01:12:26;;;;;;;7.77;3.80;;;;;;;12.70;83.31;99977.19;4237247;28;25773;-72
2023/09/01 01:14:54;;;;;;;9.40;3.10;;;;;;;12.71;83.00;99978.91;4231685;28;20357;-73
2023/09/01 01:17:21;;;;;;;7.00;3.83;;;;;;;12.65;83.47;99979.59;4247865;28;20384;-78
2023/09/01 01:20:15;;;;;;;5.93;3.80;;;;;;;12.47;84.29;99987.94;4231280;28;20228;-75
2023/09/01 01:22:49;;;;;;;10.73;4.37;;;;;;;12.42;84.62;99985.72;4225567;28;21312;-75
2023/09/01 01:25:15;;;;;;;5.17;3.77;;;;;;;12.50;84.21;99987.59;4244113;28;21111;-75
2023/09/01 01:27:42;;;;;;;6.63;3.50;;;;;;;12.54;83.82;99986.22;4243483;28;20232;-71
2023/09/01 01:30:13;;;;;;;6.30;3.60;;;;;;;12.45;83.87;99990.81;4227516;28;20242;-76
2023/09/01 01:32:43;;;;;;;9.47;3.43;;;;;;;12.46;84.10;100002.53;4252549;28;22210;-75
2023/09/01 01:35:19;;;;;;;9.40;3.83;;;;;;;12.32;84.59;99991.34;4240545;28;20256;-71
2023/09/01 01:38:07;;;;;;;5.80;3.83;;;;;;;12.28;84.89;99989.13;4236175;28;20591;-74
2023/09/01 01:40:35;;;;;;;7.50;3.70;;;;;;;12.35;84.13;99993.69;4226237;28;20288;-73
2023/09/01 01:43:04;;;;;;;6.97;3.57;;;;;;;12.28;84.29;99986.41;4221070;28;21123;-76
2023/09/01 01:45:32;;;;;;;8.30;3.50;;;;;;;12.30;84.51;99995.25;4236919;28;20229;-72
2023/09/01 01:47:59;;;;;;;6.17;3.97;;;;;;;12.35;84.04;99992.84;4208549;28;21371;-74
2023/09/01 01:50:26;;;;;;;8.43;3.50;;;;;;;12.41;83.76;99984.03;4223566;28;20757;-82
2023/09/01 01:52:52;;;;;;;5.20;3.00;;;;;;;12.29;84.01;99982.69;4219514;28;20607;-76
2023/09/01 01:55:19;;;;;;;8.87;3.30;;;;;;;12.34;84.07;99970.31;4226287;28;21678;-76
2023/09/01 01:57:46;;;;;;;5.37;3.30;;;;;;;12.39;83.92;99972.47;4219875;28;21251;-76
2023/09/01 02:00:14;;;;;;;6.33;3.77;;;;;;;12.18;84.17;99976.56;4218207;28;20298;-80
2023/09/01 02:02:42;;;;;;;5.70;3.47;;;;;;;12.30;84.02;99990.66;4221240;28;20236;-75
2023/09/01 02:05:09;;;;;;;6.77;3.20;;;;;;;12.39;83.33;99982.50;4213943;28;20232;-73
2023/09/01 02:07:36;;;;;;;6.43;3.30;;;;;;;12.43;83.17;99989.28;4222183;28;21300;-78
2023/09/01 02:10:08;;;;;;;6.27;3.53;;;;;;;12.41;83.00;99984.03;4222680;28;20307;-75
2023/09/01 02:12:35;;;;;;;5.77;3.53;;;;;;;12.43;83.11;99989.28;4218041;28;20307;-72
2023/09/01 02:15:03;;;;;;;6.23;3.47;;;;;;;12.47;83.21;99991.47;4226720;28;21946;-76
2023/09/01 02:17:30;;;;;;;7.43;3.47;;;;;;;12.31;83.56;99986.09;4221487;28;20237;-73
2023/09/01 02:19:56;;;;;;;4.63;3.00;;;;;;;12.34;83.62;99988.44;4212816;28;20615;-74
2023/09/01 02:22:23;;;;;;;5.30;3.30;;;;;;;12.29;83.63;99985.41;4205079;28;20240;-72
2023/09/01 02:24:49;;;;;;;7.40;3.70;;;;;;;12.22;83.49;99981.66;4223729;28;24927;-76
2023/09/01 02:27:16;;;;;;;9.43;3.40;;;;;;;12.22;83.70;99974.34;4218708;28;20351;-74
2023/09/01 02:29:43;;;;;;;6.10;3.67;;;;;;;12.17;83.86;99983.00;4216708;28;22292;-75
2023/09/01 02:32:09;;;;;;;6.43;3.33;;;;;;;12.13;83.79;99972.66;4230603;28;20302;-76
2023/09/01 02:34:36;;;;;;;8.47;3.17;;;;;;;12.23;83.54;99980.66;4219571;28;20283;-77
2023/09/01 02:37:02;;;;;;;4.70;3.40;;;;;;;12.12;83.88;99988.09;4222281;28;21229;-78
2023/09/01 02:39:29;;;;;;;7.73;3.27;;;;;;;12.28;83.09;99992.69;4233962;28;22336;-73
2023/09/01 02:41:56;;;;;;;5.23;3.20;;;;;;;12.41;82.85;99994.06;4240346;28;20318;-75
2023/09/01 02:44:22;;;;;;;5.53;3.10;;;;;;;12.35;82.94;100001.81;4235322;28;20240;-74
2023/09/01 02:46:49;;;;;;;4.73;3.10;;;;;;;12.40;82.51;99997.78;4236784;28;20343;-73
2023/09/01 02:49:15;;;;;;;7.93;3.53;;;;;;;12.27;83.13;99995.56;4255184;28;20248;-72
2023/09/01 02:51:42;;;;;;;4.03;3.03;;;;;;;12.13;83.49;99992.50;4245722;28;20312;-77
2023/09/01 02:54:09;;;;;;;8.63;3.23;;;;;;;12.13;83.65;99989.81;4240175;28;20236;-76
2023/09/01 02:56:35;;;;;;;7.80;3.90;;;;;;;12.19;83.48;99989.13;4250611;28;20917;-79
2023/09/01 02:59:02;;;;;;;9.77;3.60;;;;;;;12.22;83.50;99987.09;4222822;28;23674;-77
2023/09/01 03:01:29;;;;;;;8.40;4.23;;;;;;;12.14;83.61;99985.22;4260665;28;20339;-72
2023/09/01 03:03:55;;;;;;;8.03;3.80;;;;;;;12.25;83.27;99992.16;4226076;28;20274;-74
2023/09/01 03:06:22;;;;;;;7.10;4.13;;;;;;;12.22;83.05;99985.22;4261907;28;20227;-71
2023/09/01 03:08:49;;;;;;;6.27;3.53;;;;;;;12.28;83.12;99989.13;4231335;28;20970;-75
2023/09/01 03:11:15;;;;;;;6.97;3.03;;;;;;;12.28;83.05;99980.97;4230940;28;20250;-75
2023/09/01 03:13:42;;;;;;;8.90;3.70;;;;;;;12.37;82.57;99988.13;4238816;28;21427;-77
2023/09/01 03:16:08;;;;;;;5.73;3.37;;;;;;;12.38;82.61;99988.94;4249619;28;20236;-75
2023/09/01 03:18:35;;;;;;;6.43;2.93;;;;;;;12.44;82.15;99999.13;4231018;28;20240;-74
2023/09/01 03:21:09;;;;;;;12.60;3.30;;;;;;;12.44;82.26;100013.56;4237789;28;20617;-75
2023/09/01 03:23:36;;;;;;;10.80;3.23;;;;;;;12.39;82.37;100001.50;4243645;28;21111;-76
2023/09/01 03:26:05;;;;;;;7.87;3.53;;;;;;;12.22;82.58;100003.38;4226214;28;20231;-74
2023/09/01 03:28:32;;;;;;;8.40;3.23;;;;;;;12.20;82.92;100009.81;4235543;28;21817;-72
2023/09/01 03:30:59;;;;;;;6.57;3.17;;;;;;;12.22;82.88;100003.38;4239171;28;20231;-75
2023/09/01 03:33:27;;;;;;;8.37;3.50;;;;;;;12.15;83.24;100003.19;4229541;28;21780;-79
2023/09/01 03:35:53;;;;;;;15.60;3.33;;;;;;;11.98;83.89;100003.16;4228999;28;20643;-79
2023/09/01 03:38:20;;;;;;;6.17;3.30;;;;;;;11.93;84.44;100002.78;4238232;28;20237;-77
2023/09/01 03:40:47;;;;;;;5.67;3.40;;;;;;;11.90;85.21;100011.25;4236371;28;21144;-75
2023/09/01 03:43:13;;;;;;;6.67;3.40;;;;;;;11.97;84.56;99997.91;4225511;28;20282;-74
2023/09/01 03:45:43;;;;;;;4.53;3.27;;;;;;;11.97;84.47;100001.47;4235572;28;20232;-74
2023/09/01 03:48:10;;;;;;;6.87;2.83;;;;;;;11.97;84.47;100006.06;4233635;28;20243;-75
2023/09/01 03:50:36;;;;;;;6.73;3.37;;;;;;;11.94;84.45;100006.34;4222503;28;22249;-79
2023/09/01 03:53:04;;;;;;;6.63;3.37;;;;;;;12.03;84.22;100008.09;4236672;28;20810;-74
2023/09/01 03:55:30;;;;;;;4.97;3.27;;;;;;;12.07;84.41;100014.03;4238427;28;20571;-75
2023/09/01 03:57:57;;;;;;;4.57;3.20;;;;;;;12.04;84.08;100001.66;4236244;28;20294;-75
2023/09/01 04:00:23;;;;;;;6.87;3.50;;;;;;;12.01;84.71;99992.00;4240026;28;20840;-74
2023/09/01 04:02:51;;;;;;;7.57;3.40;;;;;;;12.18;83.86;100000.16;4246537;28;23382;-74
2023/09/01 04:05:17;;;;;;;7.17;3.63;;;;;;;12.14;83.50;99994.22;4236341;28;21964;-73
2023/09/01 04:07:44;;;;;;;7.47;3.60;;;;;;;12.02;84.31;99995.53;4243550;28;20580;-74
2023/09/01 04:10:11;;;;;;;6.23;3.40;;;;;;;12.14;84.33;100007.78;4261925;28;22288;-73
2023/09/01 04:12:37;;;;;;;9.03;3.60;;;;;;;12.22;84.17;100022.38;4258272;28;25765;-73
2023/09/01 04:15:06;;;;;;;6.77;3.70;;;;;;;12.04;84.56;100015.22;4262469;28;21114;-73
2023/09/01 04:17:33;;;;;;;7.27;3.67;;;;;;;12.13;84.57;100013.34;4250730;28;20339;-76
2023/09/01 04:20:00;;;;;;;9.23;3.33;;;;;;;12.20;84.22;100014.38;4261725;28;20236;-72
2023/09/01 04:22:27;;;;;;;8.90;3.43;;;;;;;12.34;83.54;100010.16;4284160;28;20254;-78
2023/09/01 04:24:54;;;;;;;4.97;3.37;;;;;;;12.35;83.74;100011.84;4255014;28;20237;-73
2023/09/01 04:27:20;;;;;;;6.83;3.40;;;;;;;12.39;83.07;100002.34;4240889;28;20231;-79
2023/09/01 04:29:47;;;;;;;9.00;3.60;;;;;;;12.65;82.09;99996.72;4281194;28;20233;-77
2023/09/01 04:32:29;;;;;;;8.33;3.30;;;;;;;12.63;81.74;100001.50;4258821;28;20438;-77
2023/09/01 04:34:56;;;;;;;10.67;4.00;;;;;;;12.66;81.85;100008.44;4258307;28;21449;-72
2023/09/01 04:37:23;;;;;;;7.40;3.40;;;;;;;12.66;81.76;100006.56;4257223;28;21639;-80
2023/09/01 04:39:49;;;;;;;6.50;3.20;;;;;;;12.83;81.15;100017.41;4245573;28;20246;-73
2023/09/01 04:42:16;;;;;;;7.77;3.00;;;;;;;12.84;81.32;100008.25;4254580;28;20421;-72
2023/09/01 04:44:43;;;;;;;8.53;3.10;;;;;;;12.95;81.06;100018.72;4239765;28;21229;-75
2023/09/01 04:47:10;;;;;;;6.97;3.30;;;;;;;12.91;80.53;100009.25;4241649;28;20303;-73
2023/09/01 04:49:36;;;;;;;7.50;3.27;;;;;;;12.96;80.82;100015.00;4234186;28;20331;-72
2023/09/01 04:52:03;;;;;;;7.20;3.20;;;;;;;13.08;80.66;100020.06;4233470;28;22494;-74
2023/09/01 04:54:30;;;;;;;11.33;3.23;;;;;;;13.00;80.78;100019.09;4252908;28;23333;-76
2023/09/01 04:56:57;;;;;;;9.30;3.57;;;;;;;13.02;80.86;100016.19;4231184;28;21135;-76
2023/09/01 04:59:23;;;;;;;8.40;3.17;;;;;;;13.13;80.54;100014.97;4239468;28;20807;-79
2023/09/01 05:01:50;;;;;;;8.67;3.40;;;;;;;13.28;80.25;100009.66;4241245;28;20235;-76
2023/09/01 05:04:16;;;;;;;11.10;3.10;;;;;;;13.44;79.52;100008.75;4259351;28;21810;-74
2023/09/01 05:06:43;;;;;;;6.83;2.80;;;;;;;13.59;78.93;100014.31;4243318;28;21564;-73
2023/09/01 05:09:09;;;;;;;9.50;3.07;;;;;;;13.72;78.50;100022.75;4253841;28;20293;-76
2023/09/01 05:11:36;;;;;;;8.77;3.30;;;;;;;13.75;78.05;100022.38;4241862;28;22918;-75
2023/09/01 05:14:03;;;;;;;6.33;2.90;;;;;;;13.57;78.93;100019.91;4201916;28;20454;-74
2023/09/01 05:16:30;;;;;;;6.80;3.23;;;;;;;13.62;79.17;100025.69;4224645;28;20239;-76
2023/09/01 05:18:56;;;;;;;6.17;3.67;;;;;;;13.49;79.47;100024.53;4232211;28;20238;-74
2023/09/01 05:21:23;;;;;;;17.03;3.40;;;;;;;13.59;79.04;100026.03;4228178;28;21602;-73
2023/09/01 05:23:49;;;;;;;13.43;3.67;;;;;;;13.49;79.69;100025.38;4232639;28;20294;-74
2023/09/01 05:26:17;;;;;;;6.93;3.10;;;;;;;13.53;79.29;100025.88;4235986;28;20298;-75
2023/09/01 05:28:43;;;;;;;6.03;2.47;;;;;;;13.47;80.00;100027.44;4230834;28;21517;-73
2023/09/01 05:31:10;;;;;;;9.57;2.60;;;;;;;13.38;80.94;100031.19;4229505;28;20254;-74
2023/09/01 05:33:36;;;;;;;5.47;2.90;;;;;;;13.43;81.14;100034.25;4243925;28;21135;-75
2023/09/01 05:36:03;;;;;;;6.37;3.10;;;;;;;13.18;82.47;100036.19;4220382;28;20224;-73
2023/09/01 05:38:30;;;;;;;9.53;3.17;;;;;;;13.16;82.65;100039.09;4237589;28;22213;-71
2023/09/01 05:41:01;;;;;;;4.83;2.73;;;;;;;13.23;83.02;100028.34;4234612;28;26460;-74
2023/09/01 05:43:29;;;;;;;5.07;2.80;;;;;;;13.28;82.24;100036.84;4237804;28;20242;-74
2023/09/01 05:45:55;;;;;;;6.57;2.90;;;;;;;13.41;81.16;100049.88;4220227;28;20242;-73
2023/09/01 05:48:23;;;;;;;6.30;2.97;;;;;;;13.35;81.81;100045.13;4241226;28;20409;-72
2023/09/01 05:50:54;;;;;;;7.67;2.93;;;;;;;13.45;80.23;100045.81;4225109;28;20641;-73
2023/09/01 05:53:27;;;;;;;4.23;2.20;;;;;;;13.46;80.83;100052.94;4226817;28;20358;-76
2023/09/01 05:55:54;;;;;;;5.20;2.40;;;;;;;13.65;79.69;100058.97;4240247;28;25768;-76
2023/09/01 05:58:21;;;;;;;6.77;2.70;;;;;;;13.84;78.55;100058.56;4236662;28;21795;-72
2023/09/01 06:00:48;;;;;;;7.20;2.60;;;;;;;13.85;78.10;100052.09;4225701;28;20822;-76
2023/09/01 06:03:15;;;;;;;4.50;2.40;;;;;;;13.90;78.19;100049.66;4221539;28;22490;-75
2023/09/01 06:05:41;;;;;;;3.87;2.07;;;;;;;14.00;77.97;100060.31;4241972;28;20306;-74
2023/09/01 06:08:08;;;;;;;5.93;2.30;;;;;;;14.18;77.98;100059.19;4233654;28;20454;-74
2023/09/01 06:10:34;;;;;;;5.40;1.93;;;;;;;14.37;76.18;100063.31;4222661;28;20231;-75
2023/09/01 06:13:01;;;;;;;8.47;3.00;;;;;;;14.32;76.37;100061.16;4237364;28;21808;-74
2023/09/01 06:15:28;;;;;;;7.50;2.20;;;;;;;14.18;76.84;100059.19;4228402;28;20852;-73
2023/09/01 06:17:55;;;;;;;5.00;2.10;;;;;;;14.05;77.86;100063.34;4241349;28;20231;-75
2023/09/01 06:20:22;;;;;;;6.07;1.90;;;;;;;14.15;76.76;100065.88;4231447;28;20298;-74
2023/09/01 06:22:50;;;;;;;4.90;2.10;;;;;;;14.24;76.09;100069.38;4241089;28;20337;-74
2023/09/01 06:25:16;;;;;;;6.67;2.47;;;;;;;14.54;74.65;100053.97;4226718;28;20325;-73
2023/09/01 06:27:43;;;;;;;5.13;1.93;;;;;;;14.77;72.44;100060.47;4236408;28;20231;-76
2023/09/01 06:30:10;;;;;;;5.53;2.73;;;;;;;14.78;73.02;100056.72;4233007;28;20931;-77
2023/09/01 06:32:36;;;;;;;6.37;1.90;;;;;;;14.77;72.74;100065.91;4243014;28;20955;-73
2023/09/01 06:35:03;;;;;;;3.30;1.93;;;;;;;14.83;72.99;100062.47;4234258;28;20235;-74
2023/09/01 06:37:30;;;;;;;4.03;2.03;;;;;;;15.05;71.75;100066.16;4234066;28;20301;-72
2023/09/01 06:39:56;;;;;;;4.97;2.20;;;;;;;15.07;71.10;100060.53;4231091;28;20243;-73
2023/09/01 06:42:23;;;;;;;6.27;2.20;;;;;;;15.07;71.04;100061.34;4229311;28;20226;-73
2023/09/01 06:44:50;;;;;;;3.63;1.87;;;;;;;15.18;71.64;100076.44;4255811;28;20228;-71
2023/09/01 06:47:17;;;;;;;6.93;2.30;;;;;;;15.56;71.41;100072.75;4253339;28;25432;-73
2023/09/01 06:49:43;;;;;;;7.40;2.20;;;;;;;15.16;72.21;100073.88;4232326;28;20236;-73
2023/09/01 06:52:11;;;;;;;3.47;1.90;;;;;;;15.25;71.09;100066.47;4243654;28;23454;-73
2023/09/01 06:54:39;;;;;;;4.77;1.90;;;;;;;16.31;68.37;100078.94;4245565;28;20650;-75
2023/09/01 06:57:05;;;;;;;7.40;2.80;;;;;;;18.06;61.79;100075.56;4223262;28;20275;-73
2023/09/01 06:59:32;;;;;;;4.93;1.70;;;;;;;19.21;57.48;100084.78;4242148;28;20230;-72
2023/09/01 07:01:59;;;;;;;4.67;1.60;;;;;;;19.27;56.68;100090.28;4242995;28;23492;-71
2023/09/01 07:04:29;;;;;;;7.73;1.60;;;;;;;20.86;53.37;100088.09;4244181;28;22264;-71
2023/09/01 07:06:56;;;;;;;3.33;1.87;;;;;;;21.95;49.91;100084.03;4236426;28;20240;-73
2023/09/01 07:09:23;;;;;;;4.03;1.80;;;;;;;23.24;45.59;100081.91;4253505;28;20278;-74
2023/09/01 07:11:50;;;;;;;2.67;1.50;;;;;;;23.11;45.75;100089.31;4258829;28;20227;-75
2023/09/01 07:14:17;;;;;;;3.37;1.60;;;;;;;22.92;45.47;100093.28;4288546;28;20272;-73
2023/09/01 07:16:44;;;;;;;3.27;1.63;;;;;;;21.98;48.10;100087.16;4275311;28;20666;-73
2023/09/01 07:19:11;;;;;;;8.33;2.10;;;;;;;20.01;52.64;100091.97;4268040;28;20288;-74
2023/09/01 07:21:37;;;;;;;4.03;1.90;;;;;;;21.91;46.58;100089.16;4293851;28;21310;-75
2023/09/01 07:24:04;;;;;;;3.50;1.33;;;;;;;22.40;44.61;100089.16;4299768;28;20486;-74
2023/09/01 07:26:31;;;;;;;2.73;1.23;;;;;;;24.62;40.65;100085.88;4284134;28;20333;-77
2023/09/01 07:28:58;;;;;;;5.97;1.43;;;;;;;24.98;39.27;100088.44;4413831;28;20238;-74
2023/09/01 07:31:27;;;;;;;2.43;1.10;;;;;;;26.32;37.24;100079.19;4380358;28;20534;-74
2023/09/01 07:33:55;;;;;;;1.47;1.10;;;;;;;23.57;42.81;100095.09;4357061;28;22210;-72
2023/09/01 07:36:22;;;;;;;6.03;1.30;;;;;;;23.64;42.74;100097.72;4475832;28;21295;-74
2023/09/01 07:38:49;;;;;;;3.30;1.50;;;;;;;22.91;43.64;100089.66;4416651;28;20253;-75
2023/09/01 07:41:17;;;;;;;2.33;1.23;;;;;;;24.33;39.78;100096.97;4366176;28;20641;-73
2023/09/01 07:43:44;;;;;;;3.47;0.97;;;;;;;23.97;41.22;100098.16;4427439;28;20366;-76
2023/09/01 07:46:11;;;;;;;2.93;1.27;;;;;;;23.12;43.50;100101.19;4433282;28;21835;-75
2023/09/01 07:48:39;;;;;;;4.50;1.50;;;;;;;23.75;41.74;100109.84;4418664;28;20235;-74
2023/09/01 07:51:06;;;;;;;3.00;1.30;;;;;;;22.12;45.02;100109.88;4540626;28;20471;-66
2023/09/01 07:53:34;;;;;;;3.07;1.20;;;;;;;22.98;43.54;100106.13;4472130;28;21400;-67
2023/09/01 07:56:01;;;;;;;6.03;1.10;;;;;;;22.97;43.68;100107.19;4283939;28;20229;-68
2023/09/01 07:58:28;;;;;;;3.23;1.20;;;;;;;23.00;44.67;100092.91;4321553;28;20226;-66
2023/09/01 08:00:55;;;;;;;2.93;1.23;;;;;;;24.31;41.17;100101.06;4309273;28;22603;-67
2023/09/01 08:03:22;;;;;;;2.57;1.50;;;;;;;25.08;39.18;100102.44;4283125;28;20227;-67
2023/09/01 08:05:49;;;;;;;4.27;1.33;;;;;;;24.20;41.09;100106.38;4326669;28;20251;-68
2023/09/01 08:08:16;;;;;;;3.87;1.13;;;;;;;24.70;40.18;100111.47;4289616;28;21515;-66
2023/09/01 08:10:43;;;;;;;5.73;1.10;;;;;;;23.54;42.33;100111.31;4265102;28;20310;-67
2023/09/01 08:13:10;;;;;;;5.40;1.20;;;;;;;21.18;47.67;100112.78;4238724;28;20231;-64
2023/09/01 08:15:37;;;;;;;5.53;1.30;;;;;;;20.43;48.44;100106.97;4260575;28;22032;-66
2023/09/01 08:18:05;;;;;;;2.43;1.10;;;;;;;20.29;50.81;100099.00;4266893;28;21185;-68
2023/09/01 08:20:32;;;;;;;3.90;1.23;;;;;;;20.34;49.26;100094.53;4267125;28;20317;-65
2023/09/01 08:22:59;;;;;;;2.00;0.90;;;;;;;20.55;48.65;100106.25;4272378;28;20244;-66
2023/09/01 08:25:27;;;;;;;2.30;1.00;;;;;;;21.01;46.68;100096.84;4300789;28;20239;-69
2023/09/01 08:27:54;;;;;;;3.13;1.07;;;;;;;21.16;45.57;100099.28;4310219;28;20529;-66
2023/09/01 08:30:21;;;;;;;3.47;1.30;;;;;;;20.88;46.31;100089.53;4324577;28;20329;-67
2023/09/01 08:32:48;;;;;;;2.97;0.90;;;;;;;21.45;45.94;100102.38;4328208;28;22374;-66
2023/09/01 08:35:15;;;;;;;2.87;1.00;;;;;;;20.77;47.14;100100.44;4285853;28;22753;-67
2023/09/01 08:37:45;;;;;;;1.63;0.90;;;;;;;20.35;48.05;100095.41;4289829;28;21171;-66
2023/09/01 08:40:13;;;;;;;3.30;1.00;;;;;;;19.84;49.87;100110.81;4280404;27;20392;-64
2023/09/01 08:42:46;;;;;;;6.20;1.03;;;;;;;20.24;48.99;100099.69;4296847;28;20626;-65
2023/09/01 08:45:17;;;;;;;2.57;1.00;;;;;;;20.39;49.05;100110.38;4270843;28;20231;-63
2023/09/01 08:47:46;;;;;;;1.77;0.97;;;;;;;20.68;48.91;100102.56;4311626;28;20647;-66
2023/09/01 08:50:14;;;;;;;3.37;1.27;;;;;;;20.71;46.98;100111.22;4305122;28;20278;-66
2023/09/01 08:52:42;;;;;;;3.53;1.10;;;;;;;20.73;46.58;100114.63;4299325;28;21267;-68
2023/09/01 08:55:10;;;;;;;2.23;1.10;;;;;;;19.93;49.60;100102.16;4258027;28;22255;-67
2023/09/01 08:57:37;;;;;;;1.30;0.70;;;;;;;19.75;49.67;100093.75;4281641;28;20241;-65
2023/09/01 09:00:08;;;;;;;3.47;1.03;;;;;;;19.52;50.35;100125.28;4261892;28;20310;-65
2023/09/01 09:02:36;;;;;;;2.43;0.93;;;;;;;19.90;49.22;100104.50;4256849;28;20250;-66
2023/09/01 09:05:03;;;;;;;2.73;1.10;;;;;;;19.56;50.40;100109.22;4268909;28;20239;-67
2023/09/01 09:07:30;;;;;;;2.33;0.83;;;;;;;19.50;51.36;100104.56;4259301;28;20227;-66
2023/09/01 09:09:58;;;;;;;3.13;1.10;;;;;;;19.39;51.06;100112.41;4258231;28;20239;-67
2023/09/01 09:12:36;;;;;;;2.70;1.20;;;;;;;19.39;51.10;100120.66;4266283;28;21143;-66
2023/09/01 09:15:05;;;;;;;1.60;1.00;;;;;;;19.31;51.49;100118.13;4270171;28;20261;-69
2023/09/01 09:17:45;;;;;;;2.40;1.30;;;;;;;19.14;50.96;100115.00;4246072;28;20251;-65
2023/09/01 09:20:14;;;;;;;1.80;0.87;;;;;;;19.07;51.94;100117.72;4277303;28;20628;-65
2023/09/01 09:22:54;;;;;;;2.97;1.33;;;;;;;19.12;52.49;100123.41;4255855;28;20233;-65
2023/09/01 09:25:31;;;;;;;2.57;1.23;;;;;;;19.23;51.06;100115.59;4221720;28;20230;-66
2023/09/01 09:27:58;;;;;;;3.73;1.10;;;;;;;19.37;51.94;100116.44;4255267;28;20235;-67
2023/09/01 09:30:27;;;;;;;4.10;1.17;;;;;;;19.85;49.25;100120.78;4240283;28;21791;-65
2023/09/01 09:33:05;;;;;;;6.57;1.40;;;;;;;19.98;48.95;100098.75;4246000;28;20352;-68
2023/09/01 09:35:35;;;;;;;8.13;1.20;;;;;;;19.86;48.92;100117.81;4243110;28;20830;-65
2023/09/01 09:38:02;;;;;;;3.10;1.13;;;;;;;19.99;48.28;100118.81;4267146;28;20413;-69
2023/09/01 09:40:29;;;;;;;2.37;1.00;;;;;;;20.15;48.69;100114.75;4322002;28;20258;-67
2023/09/01 09:43:01;;;;;;;5.53;1.30;;;;;;;19.89;49.88;100114.66;4266148;28;20235;-67
2023/09/01 09:45:32;;;;;;;4.17;1.13;;;;;;;20.06;48.47;100116.88;4262162;28;20239;-67
2023/09/01 09:48:03;;;;;;;3.53;1.20;;;;;;;19.97;49.88;100120.97;4247728;28;20239;-67
2023/09/01 09:50:31;;;;;;;2.57;1.00;;;;;;;20.08;48.68;100120.25;4241554;28;20409;-68
2023/09/01 09:53:07;;;;;;;4.47;1.40;;;;;;;19.76;49.61;100115.50;4237848;28;21086;-69
2023/09/01 09:55:44;;;;;;;3.57;1.10;;;;;;;19.40;50.43;100130.59;4245066;28;21074;-69
2023/09/01 09:58:12;;;;;;;3.50;0.90;;;;;;;19.51;50.88;100122.72;4246533;28;20564;-68
2023/09/01 10:01:00;;;;;;;2.30;1.03;;;;;;;19.34;50.27;100131.41;4232840;28;20752;-68
2023/09/01 10:03:30;;;;;;;5.23;1.03;;;;;;;19.26;51.40;100128.91;4264788;28;21737;-72
2023/09/01 10:05:58;;;;;;;2.13;1.20;;;;;;;18.92;50.64;100136.28;4240578;28;22567;-69
2023/09/01 10:08:27;;;;;;;8.83;1.50;;;;;;;19.29;50.32;100123.84;4244614;28;20235;-71
2023/09/01 10:10:56;;;;;;;5.00;1.23;;;;;;;19.13;51.21;100114.13;4262224;28;20271;-70
2023/09/01 10:13:23;;;;;;;4.10;1.10;;;;;;;19.16;51.33;100137.53;4233899;28;20528;-72
2023/09/01 10:15:51;;;;;;;4.47;1.17;;;;;;;19.47;50.27;100125.06;4241961;28;20250;-70
2023/09/01 10:18:19;;;;;;;3.00;1.30;;;;;;;19.30;50.65;100128.25;4234551;28;20231;-70
2023/09/01 10:20:46;;;;;;;3.23;1.17;;;;;;;19.52;50.23;100144.50;4233433;28;20725;-71
2023/09/01 10:23:13;;;;;;;4.40;1.00;;;;;;;19.74;48.78;100130.50;4216276;28;20513;-69
2023/09/01 10:25:39;;;;;;;2.80;1.10;;;;;;;19.90;48.91;100123.72;4216751;28;20228;-69
2023/09/01 10:28:15;;;;;;;2.10;1.10;;;;;;;19.86;50.17;100126.06;4235181;28;20690;-71
2023/09/01 10:30:44;;;;;;;5.10;1.13;;;;;;;19.78;50.89;100115.28;4218745;28;20729;-69
2023/09/01 10:33:24;;;;;;;2.53;1.20;;;;;;;19.86;50.33;100125.22;4213406;28;21076;-70
2023/09/01 10:35:57;;;;;;;4.67;0.80;;;;;;;19.58;51.26;100121.69;4230637;28;20290;-71
2023/09/01 10:38:33;;;;;;;2.47;0.90;;;;;;;19.68;51.45;100132.22;4242196;28;20231;-71
2023/09/01 10:41:00;;;;;;;2.90;1.10;;;;;;;19.74;49.41;100128.59;4245881;28;20256;-73
2023/09/01 10:43:31;;;;;;;3.17;1.07;;;;;;;19.73;49.60;100128.81;4250929;28;20294;-69
2023/09/01 10:46:16;;;;;;;5.63;1.10;;;;;;;20.16;49.54;100121.94;4240040;28;20302;-70
2023/09/01 10:48:52;;;;;;;4.63;1.30;;;;;;;20.55;46.24;100122.75;4268932;28;22461;-70
2023/09/01 10:51:21;;;;;;;3.57;1.30;;;;;;;20.89;45.39;100115.16;4247915;28;20229;-69
2023/09/01 10:53:56;;;;;;;3.60;1.43;;;;;;;20.84;45.08;100118.56;4243846;28;20257;-71
2023/09/01 10:56:24;;;;;;;3.83;0.93;;;;;;;20.18;47.58;100117.91;4252826;28;20883;-70
2023/09/01 10:58:53;;;;;;;6.00;1.17;;;;;;;19.95;48.18;100123.91;4239904;28;20345;-69
2023/09/01 11:01:37;;;;;;;3.03;1.00;;;;;;;19.91;49.09;100125.41;4249821;28;20303;-70
2023/09/01 11:04:16;;;;;;;4.40;1.00;;;;;;;20.09;49.05;100119.22;4240158;28;21675;-70
2023/09/01 11:06:58;;;;;;;4.70;1.37;;;;;;;19.57;50.80;100117.25;4235795;28;20226;-71
2023/09/01 11:09:33;;;;;;;5.10;1.27;;;;;;;19.41;51.28;100125.94;4271955;28;20223;-71
2023/09/01 11:12:02;;;;;;;2.93;1.20;;;;;;;19.80;51.29;100121.41;4260760;28;20637;-71
2023/09/01 11:14:29;;;;;;;3.90;1.23;;;;;;;19.93;49.25;100117.81;4254090;28;20239;-71
2023/09/01 11:16:55;;;;;;;5.67;1.13;;;;;;;19.70;49.98;100118.25;4237149;28;21591;-71
2023/09/01 11:19:22;;;;;;;2.37;1.10;;;;;;;19.56;49.28;100122.94;4245905;28;20295;-71
2023/09/01 11:21:49;;;;;;;4.90;1.40;;;;;;;19.94;49.87;100108.47;4257926;28;20239;-69
2023/09/01 11:24:22;;;;;;;8.40;1.73;;;;;;;20.44;48.78;100110.56;4240740;28;20246;-70
2023/09/01 11:26:49;;;;;;;4.43;1.40;;;;;;;20.45;47.35;100114.16;4233603;28;20247;-68
2023/09/01 11:29:16;;;;;;;18.57;2.10;;;;;;;20.23;47.88;100114.50;4232715;28;20234;-68
2023/09/01 11:31:43;;;;;;;7.30;1.83;;;;;;;20.46;47.81;100118.59;4239725;28;20431;-69